Paramount, California
Current Conditions -  °F | °C
As of 5:53 AM on Thursday 29 Jan 2015 (Local Time) from KLGB Reporting Station
Clear Clear  
Wind Chill: 60°   Ceiling: Unl
Heat Index: 60°   Visibility: 10mi
Dew Point: 48°   Wind: 6mph
Humidity: 64%   Direction: 300°WNW
Pressure: 30.02"   Gusts: NA
Location:  33.89°N, 118.16°W
Report Text: KLGB 291353Z 30005KT 10SM CLR 16/09 A3002 RMK AO2 SLP164 T01560089
Loading
Personal Weather Stations






























Interactive Weather Map New forecast layout! Learn more

10-Day Weather Forecast

Advertisements
Track Severe Weather on mobile